Oconto Falls, Wisconsin
Current Conditions -  °F | °C
As of 6:35 PM on Friday 21 Nov 2014 (Local Time) from KOCQ Reporting Station
Clear Clear  
Wind Chill: 20°   Ceiling: Unl
Heat Index: 28°   Visibility: 10mi
Dew Point:   Wind: 8mph
Humidity: 44%   Direction: 200°SSW
Pressure: 30.14"   Gusts: NA
Location:  44.87°N, 88.14°W
Report Text: KOCQ 220035Z AUTO 20007KT 10SM CLR M02/M13 A3014 RMK AO1 T10221129
Loading
Personal Weather Stations






























Interactive Weather Map New forecast layout! Learn more

10-Day Weather Forecast

Advertisements
Track Severe Weather on mobile